sensor_id;sensor_type;location;lat;lon;timestamp;P1;durP1;ratioP1;P2;durP2;ratioP2
33162;SDS011;29282;45.656;11.302;2024-03-08T00:01:47;4.15;;;3.17;;
33162;SDS011;29282;45.656;11.302;2024-03-08T00:04:13;4.20;;;3.25;;
33162;SDS011;29282;45.656;11.302;2024-03-08T00:06:41;4.20;;;3.33;;
33162;SDS011;29282;45.656;11.302;2024-03-08T00:09:09;4.28;;;3.50;;
33162;SDS011;29282;45.656;11.302;2024-03-08T00:11:34;4.47;;;3.50;;
33162;SDS011;29282;45.656;11.302;2024-03-08T00:14:00;4.20;;;3.15;;
33162;SDS011;29282;45.656;11.302;2024-03-08T00:16:25;3.70;;;3.38;;
33162;SDS011;29282;45.656;11.302;2024-03-08T00:18:51;3.95;;;3.58;;
33162;SDS011;29282;45.656;11.302;2024-03-08T00:21:17;5.40;;;3.50;;
33162;SDS011;29282;45.656;11.302;2024-03-08T00:23:45;5.65;;;3.70;;
33162;SDS011;29282;45.656;11.302;2024-03-08T00:26:11;3.75;;;3.30;;
33162;SDS011;29282;45.656;11.302;2024-03-08T00:28:36;4.88;;;3.45;;
33162;SDS011;29282;45.656;11.302;2024-03-08T00:31:02;3.67;;;3.28;;
33162;SDS011;29282;45.656;11.302;2024-03-08T00:33:28;4.32;;;3.30;;
33162;SDS011;29282;45.656;11.302;2024-03-08T00:35:53;3.60;;;3.30;;
33162;SDS011;29282;45.656;11.302;2024-03-08T00:38:19;4.50;;;3.30;;
33162;SDS011;29282;45.656;11.302;2024-03-08T00:40:45;3.25;;;2.95;;
33162;SDS011;29282;45.656;11.302;2024-03-08T00:43:10;6.53;;;3.63;;
33162;SDS011;29282;45.656;11.302;2024-03-08T00:45:39;3.63;;;3.08;;
33162;SDS011;29282;45.656;11.302;2024-03-08T00:48:07;4.65;;;3.08;;
33162;SDS011;29282;45.656;11.302;2024-03-08T00:50:34;3.80;;;3.13;;
33162;SDS011;29282;45.656;11.302;2024-03-08T00:52:59;4.45;;;3.30;;
33162;SDS011;29282;45.656;11.302;2024-03-08T00:55:25;3.63;;;3.30;;
33162;SDS011;29282;45.656;11.302;2024-03-08T00:57:51;4.90;;;3.70;;
33162;SDS011;29282;45.656;11.302;2024-03-08T01:00:19;4.05;;;3.38;;
33162;SDS011;29282;45.656;11.302;2024-03-08T01:02:46;4.10;;;3.53;;
33162;SDS011;29282;45.656;11.302;2024-03-08T01:05:12;3.63;;;3.28;;
33162;SDS011;29282;45.656;11.302;2024-03-08T01:07:38;4.50;;;3.30;;
33162;SDS011;29282;45.656;11.302;2024-03-08T01:10:04;3.30;;;3.00;;
33162;SDS011;29282;45.656;11.302;2024-03-08T01:12:34;3.38;;;3.08;;
33162;SDS011;29282;45.656;11.302;2024-03-08T01:15:00;4.38;;;3.75;;
33162;SDS011;29282;45.656;11.302;2024-03-08T01:17:25;3.40;;;3.10;;
33162;SDS011;29282;45.656;11.302;2024-03-08T01:19:52;3.83;;;3.38;;
33162;SDS011;29282;45.656;11.302;2024-03-08T01:22:18;4.75;;;3.35;;
33162;SDS011;29282;45.656;11.302;2024-03-08T01:24:44;3.00;;;2.70;;
33162;SDS011;29282;45.656;11.302;2024-03-08T01:27:10;4.32;;;3.05;;
33162;SDS011;29282;45.656;11.302;2024-03-08T01:29:37;3.17;;;2.75;;
33162;SDS011;29282;45.656;11.302;2024-03-08T01:32:06;3.20;;;2.90;;
33162;SDS011;29282;45.656;11.302;2024-03-08T01:34:31;3.50;;;3.20;;
33162;SDS011;29282;45.656;11.302;2024-03-08T01:36:58;3.63;;;3.20;;
33162;SDS011;29282;45.656;11.302;2024-03-08T01:39:24;3.53;;;2.80;;
33162;SDS011;29282;45.656;11.302;2024-03-08T01:41:49;3.88;;;3.08;;
33162;SDS011;29282;45.656;11.302;2024-03-08T01:44:15;3.47;;;3.13;;
33162;SDS011;29282;45.656;11.302;2024-03-08T01:46:45;4.35;;;3.38;;
33162;SDS011;29282;45.656;11.302;2024-03-08T01:49:11;3.75;;;2.95;;
33162;SDS011;29282;45.656;11.302;2024-03-08T01:51:38;3.47;;;3.00;;
33162;SDS011;29282;45.656;11.302;2024-03-08T01:54:05;3.47;;;3.13;;
33162;SDS011;29282;45.656;11.302;2024-03-08T01:56:31;3.78;;;3.17;;
33162;SDS011;29282;45.656;11.302;2024-03-08T01:58:58;3.67;;;3.25;;
33162;SDS011;29282;45.656;11.302;2024-03-08T02:01:24;3.65;;;3.25;;
33162;SDS011;29282;45.656;11.302;2024-03-08T02:03:50;3.53;;;2.90;;
33162;SDS011;29282;45.656;11.302;2024-03-08T02:06:16;3.10;;;2.72;;
33162;SDS011;29282;45.656;11.302;2024-03-08T02:08:42;3.80;;;2.97;;
33162;SDS011;29282;45.656;11.302;2024-03-08T02:11:11;3.47;;;3.17;;
33162;SDS011;29282;45.656;11.302;2024-03-08T02:13:37;3.20;;;2.88;;
33162;SDS011;29282;45.656;11.302;2024-03-08T02:16:03;4.22;;;2.97;;
33162;SDS011;29282;45.656;11.302;2024-03-08T02:18:33;2.90;;;2.63;;
33162;SDS011;29282;45.656;11.302;2024-03-08T02:21:04;3.45;;;3.15;;
33162;SDS011;29282;45.656;11.302;2024-03-08T02:23:31;3.40;;;2.90;;
33162;SDS011;29282;45.656;11.302;2024-03-08T02:25:57;3.55;;;3.22;;
33162;SDS011;29282;45.656;11.302;2024-03-08T02:28:24;4.18;;;3.30;;
33162;SDS011;29282;45.656;11.302;2024-03-08T02:30:56;2.92;;;2.63;;
33162;SDS011;29282;45.656;11.302;2024-03-08T02:33:22;5.68;;;3.10;;
33162;SDS011;29282;45.656;11.302;2024-03-08T02:35:49;3.45;;;3.15;;
33162;SDS011;29282;45.656;11.302;2024-03-08T02:38:20;4.82;;;2.97;;
33162;SDS011;29282;45.656;11.302;2024-03-08T02:40:49;3.37;;;2.97;;
33162;SDS011;29282;45.656;11.302;2024-03-08T02:43:20;3.22;;;2.92;;
33162;SDS011;29282;45.656;11.302;2024-03-08T02:45:47;2.60;;;2.40;;
33162;SDS011;29282;45.656;11.302;2024-03-08T02:48:13;3.35;;;2.95;;
33162;SDS011;29282;45.656;11.302;2024-03-08T02:50:41;3.13;;;2.80;;
33162;SDS011;29282;45.656;11.302;2024-03-08T02:53:09;3.00;;;2.70;;
33162;SDS011;29282;45.656;11.302;2024-03-08T02:55:36;4.72;;;3.08;;
33162;SDS011;29282;45.656;11.302;2024-03-08T02:58:06;3.67;;;3.28;;
33162;SDS011;29282;45.656;11.302;2024-03-08T03:00:35;3.30;;;3.00;;
33162;SDS011;29282;45.656;11.302;2024-03-08T03:03:01;3.20;;;2.90;;
33162;SDS011;29282;45.656;11.302;2024-03-08T03:05:28;3.67;;;2.70;;
33162;SDS011;29282;45.656;11.302;2024-03-08T03:07:54;2.90;;;2.63;;
33162;SDS011;29282;45.656;11.302;2024-03-08T03:10:20;2.65;;;2.45;;
33162;SDS011;29282;45.656;11.302;2024-03-08T03:12:47;2.85;;;2.55;;
33162;SDS011;29282;45.656;11.302;2024-03-08T03:15:15;3.00;;;2.60;;
33162;SDS011;29282;45.656;11.302;2024-03-08T03:17:47;4.28;;;2.90;;
33162;SDS011;29282;45.656;11.302;2024-03-08T03:20:13;3.25;;;2.95;;
33162;SDS011;29282;45.656;11.302;2024-03-08T03:22:40;3.13;;;2.75;;
33162;SDS011;29282;45.656;11.302;2024-03-08T03:25:06;3.53;;;2.90;;
33162;SDS011;29282;45.656;11.302;2024-03-08T03:27:34;2.88;;;2.60;;
33162;SDS011;29282;45.656;11.302;2024-03-08T03:30:00;3.40;;;2.95;;
33162;SDS011;29282;45.656;11.302;2024-03-08T03:32:46;3.65;;;2.60;;
33162;SDS011;29282;45.656;11.302;2024-03-08T03:35:12;3.05;;;2.75;;
33162;SDS011;29282;45.656;11.302;2024-03-08T03:37:41;2.80;;;2.60;;
33162;SDS011;29282;45.656;11.302;2024-03-08T03:42:56;3.13;;;2.60;;
33162;SDS011;29282;45.656;11.302;2024-03-08T03:45:22;3.00;;;2.53;;
33162;SDS011;29282;45.656;11.302;2024-03-08T03:47:48;2.92;;;2.63;;
33162;SDS011;29282;45.656;11.302;2024-03-08T03:50:14;2.47;;;2.28;;
33162;SDS011;29282;45.656;11.302;2024-03-08T03:52:39;3.05;;;2.50;;
33162;SDS011;29282;45.656;11.302;2024-03-08T03:55:05;2.47;;;2.28;;
33162;SDS011;29282;45.656;11.302;2024-03-08T03:57:31;2.92;;;2.60;;
33162;SDS011;29282;45.656;11.302;2024-03-08T03:59:56;3.30;;;2.65;;
33162;SDS011;29282;45.656;11.302;2024-03-08T04:02:25;3.13;;;2.50;;
33162;SDS011;29282;45.656;11.302;2024-03-08T04:04:52;2.92;;;2.40;;
33162;SDS011;29282;45.656;11.302;2024-03-08T04:07:19;2.92;;;2.45;;
33162;SDS011;29282;45.656;11.302;2024-03-08T04:09:45;2.70;;;2.50;;
33162;SDS011;29282;45.656;11.302;2024-03-08T04:12:11;2.60;;;2.40;;
33162;SDS011;29282;45.656;11.302;2024-03-08T04:14:37;2.60;;;2.40;;
33162;SDS011;29282;45.656;11.302;2024-03-08T04:17:06;3.88;;;2.50;;
33162;SDS011;29282;45.656;11.302;2024-03-08T04:19:33;2.65;;;2.35;;
33162;SDS011;29282;45.656;11.302;2024-03-08T04:21:59;2.90;;;2.70;;
33162;SDS011;29282;45.656;11.302;2024-03-08T04:24:26;2.85;;;2.65;;
33162;SDS011;29282;45.656;11.302;2024-03-08T04:26:51;3.58;;;2.88;;
33162;SDS011;29282;45.656;11.302;2024-03-08T04:29:18;2.60;;;2.38;;
33162;SDS011;29282;45.656;11.302;2024-03-08T04:31:44;2.60;;;2.40;;
33162;SDS011;29282;45.656;11.302;2024-03-08T04:34:09;2.70;;;2.50;;
33162;SDS011;29282;45.656;11.302;2024-03-08T04:36:35;2.60;;;2.40;;
33162;SDS011;29282;45.656;11.302;2024-03-08T04:39:01;2.85;;;2.65;;
33162;SDS011;29282;45.656;11.302;2024-03-08T04:41:27;2.40;;;2.20;;
33162;SDS011;29282;45.656;11.302;2024-03-08T04:43:53;2.60;;;2.40;;
33162;SDS011;29282;45.656;11.302;2024-03-08T04:46:18;2.75;;;2.47;;
33162;SDS011;29282;45.656;11.302;2024-03-08T04:48:44;2.60;;;2.40;;
33162;SDS011;29282;45.656;11.302;2024-03-08T04:51:09;2.70;;;2.50;;
33162;SDS011;29282;45.656;11.302;2024-03-08T04:53:35;3.53;;;3.00;;
33162;SDS011;29282;45.656;11.302;2024-03-08T04:56:01;2.78;;;2.58;;
33162;SDS011;29282;45.656;11.302;2024-03-08T04:58:31;2.55;;;2.28;;
33162;SDS011;29282;45.656;11.302;2024-03-08T05:00:59;2.72;;;2.42;;
33162;SDS011;29282;45.656;11.302;2024-03-08T05:03:26;2.47;;;2.28;;
33162;SDS011;29282;45.656;11.302;2024-03-08T05:05:51;2.70;;;2.50;;
33162;SDS011;29282;45.656;11.302;2024-03-08T05:08:18;2.55;;;2.35;;
33162;SDS011;29282;45.656;11.302;2024-03-08T05:10:44;2.95;;;2.50;;
33162;SDS011;29282;45.656;11.302;2024-03-08T05:13:11;2.95;;;2.67;;
33162;SDS011;29282;45.656;11.302;2024-03-08T05:15:41;2.70;;;2.50;;
33162;SDS011;29282;45.656;11.302;2024-03-08T05:18:07;4.10;;;2.50;;
33162;SDS011;29282;45.656;11.302;2024-03-08T05:20:33;2.60;;;2.40;;
33162;SDS011;29282;45.656;11.302;2024-03-08T05:22:58;2.88;;;2.58;;
33162;SDS011;29282;45.656;11.302;2024-03-08T05:25:25;2.40;;;2.20;;
33162;SDS011;29282;45.656;11.302;2024-03-08T05:27:51;3.15;;;2.50;;
33162;SDS011;29282;45.656;11.302;2024-03-08T05:30:17;2.47;;;2.28;;
33162;SDS011;29282;45.656;11.302;2024-03-08T05:32:43;2.45;;;2.25;;
33162;SDS011;29282;45.656;11.302;2024-03-08T05:35:11;2.97;;;2.00;;
33162;SDS011;29282;45.656;11.302;2024-03-08T05:37:37;2.40;;;2.20;;
33162;SDS011;29282;45.656;11.302;2024-03-08T05:40:04;2.40;;;2.20;;
33162;SDS011;29282;45.656;11.302;2024-03-08T05:42:34;2.42;;;2.22;;
33162;SDS011;29282;45.656;11.302;2024-03-08T05:45:00;2.47;;;2.28;;
33162;SDS011;29282;45.656;11.302;2024-03-08T05:47:25;3.38;;;2.50;;
33162;SDS011;29282;45.656;11.302;2024-03-08T05:49:51;2.88;;;2.50;;
33162;SDS011;29282;45.656;11.302;2024-03-08T05:52:18;2.60;;;2.40;;
33162;SDS011;29282;45.656;11.302;2024-03-08T05:54:44;2.67;;;2.47;;
33162;SDS011;29282;45.656;11.302;2024-03-08T05:57:10;2.50;;;2.30;;
33162;SDS011;29282;45.656;11.302;2024-03-08T05:59:39;2.92;;;2.30;;
33162;SDS011;29282;45.656;11.302;2024-03-08T06:02:06;3.92;;;2.28;;
33162;SDS011;29282;45.656;11.302;2024-03-08T06:04:31;2.50;;;2.28;;
33162;SDS011;29282;45.656;11.302;2024-03-08T06:06:57;2.70;;;2.42;;
33162;SDS011;29282;45.656;11.302;2024-03-08T06:09:23;3.08;;;2.75;;
33162;SDS011;29282;45.656;11.302;2024-03-08T06:11:49;2.50;;;2.30;;
33162;SDS011;29282;45.656;11.302;2024-03-08T06:14:16;2.40;;;2.20;;
33162;SDS011;29282;45.656;11.302;2024-03-08T06:16:44;2.75;;;2.47;;
33162;SDS011;29282;45.656;11.302;2024-03-08T06:19:10;2.40;;;2.20;;
33162;SDS011;29282;45.656;11.302;2024-03-08T06:21:37;2.60;;;2.40;;
33162;SDS011;29282;45.656;11.302;2024-03-08T06:24:02;2.30;;;2.10;;
33162;SDS011;29282;45.656;11.302;2024-03-08T06:26:28;3.53;;;2.20;;
33162;SDS011;29282;45.656;11.302;2024-03-08T06:28:54;2.42;;;2.22;;
33162;SDS011;29282;45.656;11.302;2024-03-08T06:31:20;2.40;;;2.17;;
33162;SDS011;29282;45.656;11.302;2024-03-08T06:33:46;2.45;;;2.22;;
33162;SDS011;29282;45.656;11.302;2024-03-08T06:36:11;2.45;;;2.20;;
33162;SDS011;29282;45.656;11.302;2024-03-08T06:38:40;2.33;;;2.13;;
33162;SDS011;29282;45.656;11.302;2024-03-08T06:41:08;2.33;;;2.13;;
33162;SDS011;29282;45.656;11.302;2024-03-08T06:43:46;2.50;;;2.30;;
33162;SDS011;29282;45.656;11.302;2024-03-08T06:46:14;2.38;;;2.17;;
33162;SDS011;29282;45.656;11.302;2024-03-08T06:48:40;2.35;;;2.15;;
33162;SDS011;29282;45.656;11.302;2024-03-08T06:51:06;2.42;;;2.17;;
33162;SDS011;29282;45.656;11.302;2024-03-08T06:53:32;2.17;;;1.98;;
33162;SDS011;29282;45.656;11.302;2024-03-08T06:55:59;2.53;;;2.22;;
33162;SDS011;29282;45.656;11.302;2024-03-08T06:58:25;2.60;;;2.15;;
33162;SDS011;29282;45.656;11.302;2024-03-08T07:00:51;2.15;;;1.95;;
33162;SDS011;29282;45.656;11.302;2024-03-08T07:03:23;2.35;;;2.15;;
33162;SDS011;29282;45.656;11.302;2024-03-08T07:05:49;2.08;;;1.95;;
33162;SDS011;29282;45.656;11.302;2024-03-08T07:08:15;2.30;;;2.10;;
33162;SDS011;29282;45.656;11.302;2024-03-08T07:10:41;2.60;;;2.28;;
33162;SDS011;29282;45.656;11.302;2024-03-08T07:13:07;2.00;;;1.80;;
33162;SDS011;29282;45.656;11.302;2024-03-08T07:15:33;2.25;;;2.05;;
33162;SDS011;29282;45.656;11.302;2024-03-08T07:18:00;2.28;;;2.08;;
33162;SDS011;29282;45.656;11.302;2024-03-08T07:20:26;2.33;;;2.13;;
33162;SDS011;29282;45.656;11.302;2024-03-08T07:22:51;2.10;;;1.90;;
33162;SDS011;29282;45.656;11.302;2024-03-08T07:25:17;2.92;;;2.08;;
33162;SDS011;29282;45.656;11.302;2024-03-08T07:27:46;2.33;;;2.13;;
33162;SDS011;29282;45.656;11.302;2024-03-08T07:30:12;2.10;;;1.90;;
33162;SDS011;29282;45.656;11.302;2024-03-08T07:32:58;2.70;;;2.08;;
33162;SDS011;29282;45.656;11.302;2024-03-08T07:35:24;4.95;;;2.40;;
33162;SDS011;29282;45.656;11.302;2024-03-08T07:37:51;3.65;;;2.20;;
33162;SDS011;29282;45.656;11.302;2024-03-08T07:40:20;2.30;;;2.00;;
33162;SDS011;29282;45.656;11.302;2024-03-08T07:42:48;1.85;;;1.73;;
33162;SDS011;29282;45.656;11.302;2024-03-08T07:45:15;4.93;;;2.25;;
33162;SDS011;29282;45.656;11.302;2024-03-08T07:47:41;3.33;;;2.20;;
33162;SDS011;29282;45.656;11.302;2024-03-08T07:50:07;4.72;;;2.25;;
33162;SDS011;29282;45.656;11.302;2024-03-08T07:52:35;8.88;;;2.38;;
33162;SDS011;29282;45.656;11.302;2024-03-08T07:55:01;5.57;;;2.30;;
33162;SDS011;29282;45.656;11.302;2024-03-08T07:57:28;7.65;;;2.45;;
33162;SDS011;29282;45.656;11.302;2024-03-08T07:59:55;6.68;;;2.30;;
33162;SDS011;29282;45.656;11.302;2024-03-08T08:02:20;5.50;;;2.33;;
33162;SDS011;29282;45.656;11.302;2024-03-08T08:04:46;3.47;;;2.33;;
33162;SDS011;29282;45.656;11.302;2024-03-08T08:07:14;3.72;;;2.25;;
33162;SDS011;29282;45.656;11.302;2024-03-08T08:09:40;3.58;;;2.30;;
33162;SDS011;29282;45.656;11.302;2024-03-08T08:12:08;6.53;;;2.28;;
33162;SDS011;29282;45.656;11.302;2024-03-08T08:14:39;4.63;;;2.13;;
33162;SDS011;29282;45.656;11.302;2024-03-08T08:17:06;4.05;;;2.22;;
33162;SDS011;29282;45.656;11.302;2024-03-08T08:19:33;2.53;;;2.33;;
33162;SDS011;29282;45.656;11.302;2024-03-08T08:22:00;2.45;;;1.98;;
33162;SDS011;29282;45.656;11.302;2024-03-08T08:24:27;3.92;;;2.08;;
33162;SDS011;29282;45.656;11.302;2024-03-08T08:26:53;2.60;;;2.30;;
33162;SDS011;29282;45.656;11.302;2024-03-08T08:29:18;4.78;;;2.30;;
33162;SDS011;29282;45.656;11.302;2024-03-08T08:31:45;4.43;;;2.05;;
33162;SDS011;29282;45.656;11.302;2024-03-08T08:34:12;3.65;;;2.08;;
33162;SDS011;29282;45.656;11.302;2024-03-08T08:36:38;5.75;;;2.50;;
33162;SDS011;29282;45.656;11.302;2024-03-08T08:39:04;4.45;;;2.22;;
33162;SDS011;29282;45.656;11.302;2024-03-08T08:41:30;2.80;;;2.17;;
33162;SDS011;29282;45.656;11.302;2024-03-08T08:43:56;2.65;;;2.25;;
33162;SDS011;29282;45.656;11.302;2024-03-08T08:46:22;2.55;;;2.35;;
33162;SDS011;29282;45.656;11.302;2024-03-08T08:48:47;3.42;;;2.45;;
33162;SDS011;29282;45.656;11.302;2024-03-08T08:51:13;2.63;;;2.10;;
33162;SDS011;29282;45.656;11.302;2024-03-08T08:53:40;3.03;;;2.22;;
33162;SDS011;29282;45.656;11.302;2024-03-08T08:56:11;3.75;;;2.20;;
33162;SDS011;29282;45.656;11.302;2024-03-08T08:58:39;2.72;;;2.30;;
33162;SDS011;29282;45.656;11.302;2024-03-08T09:01:08;2.55;;;1.98;;
33162;SDS011;29282;45.656;11.302;2024-03-08T09:03:37;4.40;;;2.47;;
33162;SDS011;29282;45.656;11.302;2024-03-08T09:06:05;3.90;;;2.08;;
33162;SDS011;29282;45.656;11.302;2024-03-08T09:08:35;2.60;;;2.30;;
33162;SDS011;29282;45.656;11.302;2024-03-08T09:11:10;3.22;;;2.42;;
33162;SDS011;29282;45.656;11.302;2024-03-08T09:13:36;3.08;;;2.22;;
33162;SDS011;29282;45.656;11.302;2024-03-08T09:16:04;2.75;;;2.00;;
33162;SDS011;29282;45.656;11.302;2024-03-08T09:18:31;3.15;;;2.00;;
33162;SDS011;29282;45.656;11.302;2024-03-08T09:20:57;4.03;;;1.90;;
33162;SDS011;29282;45.656;11.302;2024-03-08T09:23:23;2.35;;;2.15;;
33162;SDS011;29282;45.656;11.302;2024-03-08T09:25:50;2.78;;;2.22;;
33162;SDS011;29282;45.656;11.302;2024-03-08T09:28:16;4.28;;;2.15;;
33162;SDS011;29282;45.656;11.302;2024-03-08T09:30:42;4.07;;;1.98;;
33162;SDS011;29282;45.656;11.302;2024-03-08T09:33:08;2.60;;;2.40;;
33162;SDS011;29282;45.656;11.302;2024-03-08T09:35:36;2.60;;;2.40;;
33162;SDS011;29282;45.656;11.302;2024-03-08T09:38:02;2.70;;;2.40;;
33162;SDS011;29282;45.656;11.302;2024-03-08T09:40:30;2.75;;;2.30;;
33162;SDS011;29282;45.656;11.302;2024-03-08T09:42:55;2.92;;;2.40;;
33162;SDS011;29282;45.656;11.302;2024-03-08T09:45:22;2.97;;;2.10;;
33162;SDS011;29282;45.656;11.302;2024-03-08T09:47:50;2.40;;;2.20;;
33162;SDS011;29282;45.656;11.302;2024-03-08T09:50:16;2.72;;;2.30;;
33162;SDS011;29282;45.656;11.302;2024-03-08T09:52:43;2.40;;;2.20;;
33162;SDS011;29282;45.656;11.302;2024-03-08T09:55:14;2.30;;;2.10;;
33162;SDS011;29282;45.656;11.302;2024-03-08T09:57:45;2.63;;;2.38;;
33162;SDS011;29282;45.656;11.302;2024-03-08T10:00:32;4.60;;;2.50;;
33162;SDS011;29282;45.656;11.302;2024-03-08T10:03:01;3.58;;;2.47;;
33162;SDS011;29282;45.656;11.302;2024-03-08T10:05:28;3.22;;;2.20;;
33162;SDS011;29282;45.656;11.302;2024-03-08T10:07:58;2.10;;;1.88;;
33162;SDS011;29282;45.656;11.302;2024-03-08T10:10:23;2.97;;;2.10;;
33162;SDS011;29282;45.656;11.302;2024-03-08T10:12:49;4.05;;;2.30;;
33162;SDS011;29282;45.656;11.302;2024-03-08T10:15:15;3.15;;;2.40;;
33162;SDS011;29282;45.656;11.302;2024-03-08T10:17:45;3.05;;;2.35;;
33162;SDS011;29282;45.656;11.302;2024-03-08T10:20:14;2.70;;;2.20;;
33162;SDS011;29282;45.656;11.302;2024-03-08T10:22:42;3.63;;;2.17;;
33162;SDS011;29282;45.656;11.302;2024-03-08T10:25:12;3.97;;;2.30;;
33162;SDS011;29282;45.656;11.302;2024-03-08T10:27:38;2.53;;;2.33;;
33162;SDS011;29282;45.656;11.302;2024-03-08T10:30:06;2.53;;;2.28;;
33162;SDS011;29282;45.656;11.302;2024-03-08T10:32:49;2.40;;;2.20;;
33162;SDS011;29282;45.656;11.302;2024-03-08T10:35:16;2.55;;;2.35;;
33162;SDS011;29282;45.656;11.302;2024-03-08T10:37:46;2.20;;;2.00;;
33162;SDS011;29282;45.656;11.302;2024-03-08T10:40:18;2.55;;;2.10;;
33162;SDS011;29282;45.656;11.302;2024-03-08T10:42:57;2.40;;;2.15;;
33162;SDS011;29282;45.656;11.302;2024-03-08T10:47:55;3.38;;;2.35;;
33162;SDS011;29282;45.656;11.302;2024-03-08T10:50:29;3.85;;;2.47;;
33162;SDS011;29282;45.656;11.302;2024-03-08T10:52:59;2.35;;;2.10;;
33162;SDS011;29282;45.656;11.302;2024-03-08T10:55:26;2.25;;;2.13;;
33162;SDS011;29282;45.656;11.302;2024-03-08T10:57:53;2.58;;;2.20;;
33162;SDS011;29282;45.656;11.302;2024-03-08T11:00:19;3.13;;;2.15;;
33162;SDS011;29282;45.656;11.302;2024-03-08T11:02:51;2.33;;;2.08;;
33162;SDS011;29282;45.656;11.302;2024-03-08T11:05:31;2.70;;;2.20;;
33162;SDS011;29282;45.656;11.302;2024-03-08T11:08:03;2.65;;;2.38;;
33162;SDS011;29282;45.656;11.302;2024-03-08T11:10:51;2.17;;;1.98;;
33162;SDS011;29282;45.656;11.302;2024-03-08T11:18:58;2.50;;;2.30;;
33162;SDS011;29282;45.656;11.302;2024-03-08T11:21:29;3.75;;;2.22;;
33162;SDS011;29282;45.656;11.302;2024-03-08T11:24:01;2.30;;;2.10;;
33162;SDS011;29282;45.656;11.302;2024-03-08T11:26:36;2.53;;;2.33;;
33162;SDS011;29282;45.656;11.302;2024-03-08T11:32:14;2.33;;;2.05;;
33162;SDS011;29282;45.656;11.302;2024-03-08T11:34:43;2.40;;;2.20;;
33162;SDS011;29282;45.656;11.302;2024-03-08T11:37:14;3.40;;;2.63;;
33162;SDS011;29282;45.656;11.302;2024-03-08T11:42:17;2.50;;;2.25;;
33162;SDS011;29282;45.656;11.302;2024-03-08T11:44:47;2.42;;;2.20;;
33162;SDS011;29282;45.656;11.302;2024-03-08T11:47:13;2.53;;;2.10;;
33162;SDS011;29282;45.656;11.302;2024-03-08T11:49:40;2.58;;;2.20;;
33162;SDS011;29282;45.656;11.302;2024-03-08T11:52:13;3.20;;;2.13;;
33162;SDS011;29282;45.656;11.302;2024-03-08T11:54:43;2.92;;;2.22;;
33162;SDS011;29282;45.656;11.302;2024-03-08T11:57:18;2.30;;;1.95;;
33162;SDS011;29282;45.656;11.302;2024-03-08T11:59:51;2.63;;;2.15;;
33162;SDS011;29282;45.656;11.302;2024-03-08T12:02:17;2.72;;;2.40;;
33162;SDS011;29282;45.656;11.302;2024-03-08T12:04:44;2.40;;;2.20;;
33162;SDS011;29282;45.656;11.302;2024-03-08T12:07:11;2.78;;;2.35;;
33162;SDS011;29282;45.656;11.302;2024-03-08T12:09:39;2.30;;;2.10;;
33162;SDS011;29282;45.656;11.302;2024-03-08T12:12:06;2.22;;;2.03;;
33162;SDS011;29282;45.656;11.302;2024-03-08T12:14:33;2.40;;;2.05;;
33162;SDS011;29282;45.656;11.302;2024-03-08T12:16:59;2.30;;;2.10;;
33162;SDS011;29282;45.656;11.302;2024-03-08T12:19:27;2.22;;;2.03;;
33162;SDS011;29282;45.656;11.302;2024-03-08T12:21:53;2.20;;;2.00;;
33162;SDS011;29282;45.656;11.302;2024-03-08T12:24:19;1.88;;;1.77;;
33162;SDS011;29282;45.656;11.302;2024-03-08T12:26:46;2.30;;;2.10;;
33162;SDS011;29282;45.656;11.302;2024-03-08T12:31:57;2.38;;;2.17;;
33162;SDS011;29282;45.656;11.302;2024-03-08T12:34:26;2.58;;;1.90;;
33162;SDS011;29282;45.656;11.302;2024-03-08T12:36:53;2.30;;;2.10;;
33162;SDS011;29282;45.656;11.302;2024-03-08T12:39:20;2.15;;;1.95;;
33162;SDS011;29282;45.656;11.302;2024-03-08T12:41:53;2.10;;;1.90;;
33162;SDS011;29282;45.656;11.302;2024-03-08T12:44:19;2.13;;;1.92;;
33162;SDS011;29282;45.656;11.302;2024-03-08T12:46:46;2.20;;;2.00;;
33162;SDS011;29282;45.656;11.302;2024-03-08T12:49:13;3.33;;;1.77;;
33162;SDS011;29282;45.656;11.302;2024-03-08T12:51:47;3.15;;;2.08;;
33162;SDS011;29282;45.656;11.302;2024-03-08T12:54:13;2.22;;;2.03;;
33162;SDS011;29282;45.656;11.302;2024-03-08T12:56:38;2.05;;;1.90;;
33162;SDS011;29282;45.656;11.302;2024-03-08T12:59:05;2.10;;;1.83;;
33162;SDS011;29282;45.656;11.302;2024-03-08T13:01:35;2.05;;;1.90;;
33162;SDS011;29282;45.656;11.302;2024-03-08T13:04:03;2.60;;;2.40;;
33162;SDS011;29282;45.656;11.302;2024-03-08T13:06:31;2.00;;;1.90;;
33162;SDS011;29282;45.656;11.302;2024-03-08T13:08:57;2.00;;;1.80;;
33162;SDS011;29282;45.656;11.302;2024-03-08T13:11:23;2.28;;;2.08;;
33162;SDS011;29282;45.656;11.302;2024-03-08T13:13:50;2.42;;;2.22;;
33162;SDS011;29282;45.656;11.302;2024-03-08T13:16:16;4.55;;;2.20;;
33162;SDS011;29282;45.656;11.302;2024-03-08T13:18:44;3.75;;;2.08;;
33162;SDS011;29282;45.656;11.302;2024-03-08T13:21:10;2.58;;;2.35;;
33162;SDS011;29282;45.656;11.302;2024-03-08T13:23:38;2.20;;;2.00;;
33162;SDS011;29282;45.656;11.302;2024-03-08T13:26:08;2.30;;;2.10;;
33162;SDS011;29282;45.656;11.302;2024-03-08T13:28:43;3.38;;;2.00;;
33162;SDS011;29282;45.656;11.302;2024-03-08T13:31:10;2.13;;;1.92;;
33162;SDS011;29282;45.656;11.302;2024-03-08T13:33:36;4.93;;;2.28;;
33162;SDS011;29282;45.656;11.302;2024-03-08T13:36:05;2.30;;;2.08;;
33162;SDS011;29282;45.656;11.302;2024-03-08T13:38:40;3.92;;;2.15;;
33162;SDS011;29282;45.656;11.302;2024-03-08T13:41:09;2.75;;;2.38;;
33162;SDS011;29282;45.656;11.302;2024-03-08T13:43:36;2.92;;;1.95;;
33162;SDS011;29282;45.656;11.302;2024-03-08T13:46:02;2.22;;;2.00;;
33162;SDS011;29282;45.656;11.302;2024-03-08T13:48:29;2.33;;;2.13;;
33162;SDS011;29282;45.656;11.302;2024-03-08T13:50:55;2.30;;;2.10;;
33162;SDS011;29282;45.656;11.302;2024-03-08T13:53:22;2.58;;;2.05;;
33162;SDS011;29282;45.656;11.302;2024-03-08T13:55:48;2.30;;;2.10;;
33162;SDS011;29282;45.656;11.302;2024-03-08T13:58:15;3.33;;;2.50;;
33162;SDS011;29282;45.656;11.302;2024-03-08T14:00:41;3.60;;;2.28;;
33162;SDS011;29282;45.656;11.302;2024-03-08T14:03:09;2.33;;;2.13;;
33162;SDS011;29282;45.656;11.302;2024-03-08T14:05:40;2.63;;;2.25;;
33162;SDS011;29282;45.656;11.302;2024-03-08T14:08:07;5.35;;;2.35;;
33162;SDS011;29282;45.656;11.302;2024-03-08T14:10:36;4.43;;;2.30;;
33162;SDS011;29282;45.656;11.302;2024-03-08T14:13:02;16.13;;;2.30;;
33162;SDS011;29282;45.656;11.302;2024-03-08T14:15:32;6.32;;;2.40;;
33162;SDS011;29282;45.656;11.302;2024-03-08T14:17:59;5.95;;;2.33;;
33162;SDS011;29282;45.656;11.302;2024-03-08T14:20:26;2.35;;;2.15;;
33162;SDS011;29282;45.656;11.302;2024-03-08T14:22:55;15.77;;;2.25;;
33162;SDS011;29282;45.656;11.302;2024-03-08T14:25:21;6.38;;;2.30;;
33162;SDS011;29282;45.656;11.302;2024-03-08T14:27:49;3.63;;;2.25;;
33162;SDS011;29282;45.656;11.302;2024-03-08T14:30:23;3.03;;;2.40;;
33162;SDS011;29282;45.656;11.302;2024-03-08T14:33:03;3.03;;;2.10;;
33162;SDS011;29282;45.656;11.302;2024-03-08T14:35:30;2.58;;;2.00;;
33162;SDS011;29282;45.656;11.302;2024-03-08T14:37:56;3.70;;;2.33;;
33162;SDS011;29282;45.656;11.302;2024-03-08T14:40:23;2.42;;;2.00;;
33162;SDS011;29282;45.656;11.302;2024-03-08T14:42:51;3.92;;;2.10;;
33162;SDS011;29282;45.656;11.302;2024-03-08T14:45:18;3.05;;;1.95;;
33162;SDS011;29282;45.656;11.302;2024-03-08T14:47:48;3.33;;;2.20;;
33162;SDS011;29282;45.656;11.302;2024-03-08T14:50:15;4.35;;;2.20;;
33162;SDS011;29282;45.656;11.302;2024-03-08T14:52:45;2.53;;;2.17;;
33162;SDS011;29282;45.656;11.302;2024-03-08T14:55:14;2.72;;;2.17;;